Hlavní strana
METAR-TAF:

METAR-TAF

Letiště :

In Salah, Alžírsko

zeměpisná šířka: 27-15N, zeměpisná délka: 002-31E, výška: 269 m

Aktuální stav počasí

Zpráva byla vytvořena před 33 minutami, v 22:00 UTC
Východní vítr 6 kt
Teplota 25°C
Tlak 1012 hPa
Viditelnost: 6000 m

METAR: DAUI 282200Z 08006KT 6000 NSC 25/// Q1012

Čas: 23:33 (22:33 UTC)

Předpověď počasí

Zpráva byla vytvořena před 5 hodinami a 33 minutami, v 17:00 UTC
Předpověď platná od 28 v 18 UTC do 01 v 18 UTC
Jihojihozápadní vítr 10 kt
Viditelnost: 8000 m
Pravděpodobnost 30% :
Dočasný
od 28 v 18 UTC do 28 v 22 UTC
Viditelnost: 4000 m
písek
Změna
od 28 v 20 UTC do 28 v 23 UTC
Východní vítr 8 kt
Změna
od 01 v 09 UTC do 01 v 12 UTC
Jižní vítr 12 kt

TAF: DAUI 281700Z 2818/0118 20010KT 8000 NSC PROB30 TEMPO 2818/2822 4000 SA BECMG 2820/2823 08008KT BECMG 0109/0112 19012KT

Stav a předpovědi počasí z více než 4 000 letišť (zprávy METAR a TAF).

Červené a žluté tečky na mapě představují dostupné meteorologické stanice.

Když kurzor umístíte na tečku, zobrazí se název stanice.

Pak kliknutím zobrazíte stav a předpověď počasí.

Chcete-li změnit mapu, kliknutím na zelené tlačítko se znaménkem +mapu přiblížíte, kliknutím na zelené tlačítko se znaménkem – mapu oddálíte a kliknutím na zelené šipky přejdete na sousední mapy.


METAR-TAF: